LFJL/ETZ METAR and TAF weather

Enter ICAO airport designator
Station Type Date Time Source
LFJL METAR 2021/10/24 21:30 UTC NOAA

LFJL 242130Z AUTO 15010KT CAVOK 06/04 Q1022 NOSIG


Station Type Date Time Source
LFJL Decoded METAR 2021/10/24 21:30 UTC NOAA

Metz-Nancy-Lorraine, France (LFJL) 48-59N 006-15E
Oct 24, 2021 - 05:30 PM EDT / 2021.10.24 2130 UTC
Wind: from the SSE (150 degrees) at 12 MPH (10 KT):0
Visibility: greater than 7 mile(s):0
Temperature: 42 F (6 C)
Dew Point: 39 F (4 C)
Relative Humidity: 86%
Pressure (altimeter): 30.18 in. Hg (1022 hPa)
ob: LFJL 242130Z AUTO 15010KT CAVOK 06/04 Q1022 NOSIG
cycle: 21

Station Type Date Time Source
LFJL TAF 2021/10/24 18:21 UTC NOAA

TAF LFJL 241700Z 2418/2518 16008KT CAVOK PROB30
TEMPO 2504/2507 4000 BR
BECMG 2510/2512 24008KT
BECMG 2516/2518 BKN020

Example: see airport list